createdAt,value
2023-04-20T00:01:07.126Z,101376.91
2023-04-20T00:03:35.371Z,101373.76
2023-04-20T00:06:02.404Z,101382.48
2023-04-20T00:08:29.267Z,101379.88
2023-04-20T00:10:55.861Z,101374.59
2023-04-20T00:13:22.579Z,101372.95
2023-04-20T00:15:49.280Z,101368.19
2023-04-20T00:18:16.443Z,101363.10
2023-04-20T00:20:43.213Z,101359.42
2023-04-20T00:23:10.080Z,101360.59
2023-04-20T00:25:36.911Z,101351.13
2023-04-20T00:28:03.673Z,101351.39
2023-04-20T00:30:30.391Z,101351.35
2023-04-20T00:32:57.245Z,101350.20
2023-04-20T00:35:24.140Z,101346.52
2023-04-20T00:37:51.201Z,101353.30
2023-04-20T00:40:17.784Z,101348.70
2023-04-20T00:42:44.632Z,101342.84
2023-04-20T00:45:11.352Z,101344.59
2023-04-20T00:47:39.021Z,101346.98
2023-04-20T00:50:07.258Z,101344.44
2023-04-20T00:52:34.171Z,101339.73
2023-04-20T00:55:01.313Z,101336.47
2023-04-20T00:57:28.480Z,101332.81
2023-04-20T00:59:55.390Z,101330.86
2023-04-20T01:02:22.146Z,101334.34
2023-04-20T01:04:49.144Z,101330.02
2023-04-20T01:07:15.992Z,101323.16
2023-04-20T01:09:43.067Z,101319.88
2023-04-20T01:12:10.570Z,101315.79
2023-04-20T01:14:37.733Z,101313.53
2023-04-20T01:17:04.589Z,101307.96
2023-04-20T01:19:31.165Z,101310.38
2023-04-20T01:21:57.750Z,101308.44
2023-04-20T01:24:24.490Z,101299.95
2023-04-20T01:26:51.347Z,101299.95
2023-04-20T01:29:18.257Z,101292.64
2023-04-20T01:31:45.078Z,101289.48
2023-04-20T01:34:11.768Z,101284.11
2023-04-20T01:36:38.654Z,101282.08
2023-04-20T01:39:05.524Z,101278.54
2023-04-20T01:41:32.094Z,101270.66
2023-04-20T01:43:58.771Z,101271.03
2023-04-20T01:46:25.457Z,101270.62
2023-04-20T01:48:52.157Z,101267.31
2023-04-20T01:51:18.815Z,101261.88
2023-04-20T01:53:45.721Z,101261.48
2023-04-20T01:56:12.598Z,101260.92
2023-04-20T01:58:39.278Z,101261.12
2023-04-20T02:01:06.248Z,101261.16
2023-04-20T02:03:33.068Z,101263.59
2023-04-20T02:05:59.822Z,101265.86
2023-04-20T02:08:26.528Z,101265.98
2023-04-20T02:10:53.153Z,101265.29
2023-04-20T02:13:20.087Z,101261.10
2023-04-20T02:15:46.848Z,101253.20
2023-04-20T02:18:13.396Z,101253.77
2023-04-20T02:20:40.122Z,101248.36
2023-04-20T02:23:06.807Z,101246.95
2023-04-20T02:25:33.924Z,101244.27
2023-04-20T02:28:00.834Z,101244.42
2023-04-20T02:30:27.491Z,101243.46
2023-04-20T02:32:54.296Z,101243.68
2023-04-20T02:35:21.081Z,101247.80
2023-04-20T02:37:47.665Z,101249.02
2023-04-20T02:40:14.842Z,101251.21
2023-04-20T02:42:41.516Z,101249.50
2023-04-20T02:45:09.263Z,101249.61
2023-04-20T02:47:36.160Z,101247.96
2023-04-20T02:50:03.016Z,101241.30
2023-04-20T02:52:29.621Z,101242.58
2023-04-20T02:54:56.469Z,101239.00
2023-04-20T02:57:23.179Z,101236.32
2023-04-20T02:59:49.835Z,101235.60
2023-04-20T03:02:16.724Z,101233.09
2023-04-20T03:04:43.842Z,101232.99
2023-04-20T03:07:10.684Z,101235.99
2023-04-20T03:09:37.399Z,101229.27
2023-04-20T03:12:05.050Z,101232.06
2023-04-20T03:14:32.003Z,101230.89
2023-04-20T03:16:58.714Z,101229.48
2023-04-20T03:19:25.317Z,101232.63
2023-04-20T03:21:52.123Z,101235.59
2023-04-20T03:24:19.276Z,101233.38
2023-04-20T03:26:45.945Z,101234.45
2023-04-20T03:29:12.616Z,101233.71
2023-04-20T03:31:39.290Z,101236.63
2023-04-20T03:34:05.912Z,101241.96
2023-04-20T03:36:32.949Z,101239.30
2023-04-20T03:38:59.531Z,101239.62
2023-04-20T03:41:26.495Z,101231.54
2023-04-20T03:43:53.060Z,101230.73
2023-04-20T03:46:22.048Z,101237.83
2023-04-20T03:48:50.074Z,101238.16
2023-04-20T03:51:16.718Z,101237.59
2023-04-20T03:53:43.379Z,101234.58
2023-04-20T03:56:10.218Z,101236.29
2023-04-20T03:58:36.879Z,101238.59
2023-04-20T04:01:10.596Z,101238.96
2023-04-20T04:03:37.456Z,101235.36
2023-04-20T04:06:04.786Z,101236.72
2023-04-20T04:08:32.125Z,101236.71
2023-04-20T04:10:59.473Z,101232.92
2023-04-20T04:13:26.359Z,101236.48
2023-04-20T04:15:53.266Z,101236.03
2023-04-20T04:18:21.513Z,101235.08
2023-04-20T04:20:48.259Z,101243.83
2023-04-20T04:23:15.317Z,101245.34
2023-04-20T04:25:42.210Z,101244.84
2023-04-20T04:28:08.884Z,101243.99
2023-04-20T04:30:35.537Z,101242.84
2023-04-20T04:33:04.839Z,101247.34
2023-04-20T04:35:34.254Z,101248.55
2023-04-20T04:38:00.981Z,101246.03
2023-04-20T04:40:27.496Z,101248.73
2023-04-20T04:42:55.436Z,101245.25
2023-04-20T04:45:22.035Z,101240.40
2023-04-20T04:47:48.648Z,101243.83
2023-04-20T04:50:15.285Z,101239.19
2023-04-20T04:52:41.803Z,101242.33
2023-04-20T04:55:09.594Z,101243.89
2023-04-20T04:57:36.364Z,101247.08
2023-04-20T05:00:06.858Z,101251.30
2023-04-20T05:02:33.565Z,101252.79
2023-04-20T05:05:00.203Z,101248.31
2023-04-20T05:07:26.689Z,101249.92
2023-04-20T05:09:53.178Z,101253.18
2023-04-20T05:12:19.846Z,101255.41
2023-04-20T05:14:46.339Z,101258.45
2023-04-20T05:17:12.777Z,101261.75
2023-04-20T05:19:39.215Z,101261.95
2023-04-20T05:22:06.087Z,101260.43
2023-04-20T05:24:32.467Z,101264.48
2023-04-20T05:26:58.983Z,101265.67
2023-04-20T05:29:25.546Z,101262.37
2023-04-20T05:31:52.176Z,101266.14
2023-04-20T05:34:18.722Z,101268.95
2023-04-20T05:36:46.868Z,101266.55
2023-04-20T05:39:13.632Z,101273.08
2023-04-20T05:41:40.212Z,101276.85
2023-04-20T05:44:06.801Z,101276.55
2023-04-20T05:46:33.318Z,101278.48
2023-04-20T05:48:59.765Z,101284.73
2023-04-20T05:51:29.000Z,101287.17
2023-04-20T05:53:55.444Z,101289.91
2023-04-20T05:56:21.913Z,101289.71
2023-04-20T05:58:48.701Z,101290.41
2023-04-20T06:01:15.421Z,101289.24
2023-04-20T06:03:42.093Z,101287.00
2023-04-20T06:06:08.675Z,101279.63
2023-04-20T06:08:35.320Z,101281.19
2023-04-20T06:11:02.595Z,101281.02
2023-04-20T06:13:29.086Z,101279.18
2023-04-20T06:15:55.864Z,101273.81
2023-04-20T06:18:22.739Z,101271.96
2023-04-20T06:20:49.267Z,101271.75
2023-04-20T06:23:16.227Z,101273.98
2023-04-20T06:25:43.123Z,101279.61
2023-04-20T06:28:09.913Z,101281.82
2023-04-20T06:30:36.696Z,101278.65
2023-04-20T06:33:03.784Z,101280.17
2023-04-20T06:35:30.517Z,101285.29
2023-04-20T06:37:57.583Z,101283.23
2023-04-20T06:40:27.411Z,101279.09
2023-04-20T06:42:54.159Z,101280.63
2023-04-20T06:45:21.162Z,101277.84
2023-04-20T06:47:48.112Z,101277.68
2023-04-20T06:50:14.910Z,101277.58
2023-04-20T06:52:41.652Z,101282.05
2023-04-20T06:55:10.113Z,101282.92
2023-04-20T06:57:39.672Z,101281.45
2023-04-20T07:00:11.197Z,101282.61
2023-04-20T07:02:49.838Z,101281.95
2023-04-20T07:05:18.063Z,101285.84
2023-04-20T07:07:45.437Z,101286.44
2023-04-20T07:10:14.070Z,101289.33
2023-04-20T07:12:43.245Z,101291.10
2023-04-20T07:15:11.192Z,101293.44
2023-04-20T07:17:37.768Z,101288.40
2023-04-20T07:20:08.677Z,101294.39
2023-04-20T07:22:36.312Z,101287.52
2023-04-20T07:25:04.782Z,101283.38
2023-04-20T07:27:35.090Z,101288.25
2023-04-20T07:30:02.171Z,101289.90
2023-04-20T07:32:29.147Z,101292.00
2023-04-20T07:34:55.771Z,101295.56
2023-04-20T07:37:23.249Z,101295.80
2023-04-20T07:39:53.676Z,101293.98
2023-04-20T07:42:21.431Z,101293.38
2023-04-20T07:44:48.742Z,101290.27
2023-04-20T07:47:15.688Z,101294.94
2023-04-20T07:49:43.185Z,101296.63
2023-04-20T07:52:16.465Z,101300.05
2023-04-20T07:54:44.893Z,101299.08
2023-04-20T07:57:11.592Z,101299.20
2023-04-20T07:59:39.242Z,101300.54
2023-04-20T08:02:06.277Z,101302.27
2023-04-20T08:04:33.490Z,101301.41
2023-04-20T08:07:00.738Z,101301.85
2023-04-20T08:09:28.468Z,101295.80
2023-04-20T08:11:55.390Z,101296.31
2023-04-20T08:14:22.273Z,101294.66
2023-04-20T08:16:48.983Z,101300.48
2023-04-20T08:19:15.953Z,101304.91
2023-04-20T08:21:43.028Z,101299.09
2023-04-20T08:24:10.064Z,101304.66
2023-04-20T08:26:37.004Z,101305.66
2023-04-20T08:29:04.354Z,101305.13
2023-04-20T08:31:31.645Z,101310.77
2023-04-20T08:33:58.342Z,101314.44
2023-04-20T08:36:25.087Z,101315.95
2023-04-20T08:38:55.294Z,101316.35
2023-04-20T08:41:22.643Z,101317.61
2023-04-20T08:43:50.389Z,101318.75
2023-04-20T08:46:17.652Z,101320.17
2023-04-20T08:48:46.321Z,101319.56
2023-04-20T08:51:16.009Z,101319.73
2023-04-20T08:53:42.814Z,101316.81
2023-04-20T08:56:10.019Z,101313.91
2023-04-20T08:58:38.561Z,101314.61
2023-04-20T09:01:05.551Z,101310.46
2023-04-20T09:03:37.362Z,101312.60
2023-04-20T09:06:15.326Z,101308.02
2023-04-20T09:08:42.977Z,101303.50
2023-04-20T09:11:22.037Z,101303.98
2023-04-20T09:14:10.239Z,101304.27
2023-04-20T09:16:39.416Z,101307.87
2023-04-20T09:19:08.382Z,101309.56
2023-04-20T09:21:35.878Z,101310.66
2023-04-20T09:24:09.349Z,101312.61
2023-04-20T09:26:36.389Z,101314.92
2023-04-20T09:29:03.827Z,101317.83
2023-04-20T09:31:30.844Z,101317.63
2023-04-20T09:34:02.223Z,101318.02
2023-04-20T09:36:42.365Z,101314.20
2023-04-20T09:39:13.986Z,101311.00
2023-04-20T09:41:41.906Z,101311.60
2023-04-20T09:44:09.964Z,101312.67
2023-04-20T09:46:38.364Z,101315.37
2023-04-20T09:49:07.346Z,101312.05
2023-04-20T09:51:37.417Z,101314.88
2023-04-20T09:54:06.503Z,101308.73
2023-04-20T09:56:35.070Z,101310.83
2023-04-20T09:59:03.678Z,101313.39
2023-04-20T10:01:33.588Z,101313.91
2023-04-20T10:04:01.612Z,101309.42
2023-04-20T10:06:30.817Z,101313.33
2023-04-20T10:08:57.757Z,101311.67
2023-04-20T10:11:48.928Z,101309.71
2023-04-20T10:14:26.121Z,101320.16
2023-04-20T10:17:29.504Z,101318.24
2023-04-20T10:19:56.390Z,101321.41
2023-04-20T10:22:32.816Z,101318.95
2023-04-20T10:25:01.193Z,101314.39
2023-04-20T10:27:28.963Z,101318.55
2023-04-20T10:29:55.801Z,101321.48
2023-04-20T10:32:29.145Z,101318.36
2023-04-20T10:35:13.935Z,101312.05
2023-04-20T10:37:51.271Z,101313.19
2023-04-20T10:40:26.870Z,101309.83
2023-04-20T10:42:53.707Z,101300.30
2023-04-20T10:45:21.643Z,101298.24
2023-04-20T10:47:48.487Z,101299.08
2023-04-20T10:50:16.185Z,101303.44
2023-04-20T10:52:44.325Z,101301.61
2023-04-20T10:55:22.294Z,101297.93
2023-04-20T10:57:49.794Z,101297.28
2023-04-20T11:00:16.495Z,101300.61
2023-04-20T11:02:50.757Z,101302.33
2023-04-20T11:05:18.907Z,101302.17
2023-04-20T11:07:52.469Z,101297.95
2023-04-20T11:10:19.923Z,101300.89
2023-04-20T11:12:46.766Z,101300.41
2023-04-20T11:15:13.875Z,101295.61
2023-04-20T11:17:40.651Z,101292.02
2023-04-20T11:20:14.375Z,101286.52
2023-04-20T11:22:42.313Z,101285.00
2023-04-20T11:25:10.751Z,101280.14
2023-04-20T11:27:38.816Z,101277.17
2023-04-20T11:30:06.486Z,101276.13
2023-04-20T11:32:34.054Z,101276.90
2023-04-20T11:35:07.855Z,101267.86
2023-04-20T11:37:46.845Z,101266.16
2023-04-20T11:40:15.082Z,101261.30
2023-04-20T11:42:41.902Z,101261.31
2023-04-20T11:45:08.923Z,101257.55
2023-04-20T11:47:35.707Z,101259.66
2023-04-20T11:50:02.762Z,101260.79
2023-04-20T11:52:29.667Z,101252.21
2023-04-20T11:54:56.391Z,101244.98
2023-04-20T11:57:24.024Z,101248.64
2023-04-20T11:59:51.127Z,101242.08
2023-04-20T12:02:17.776Z,101241.57
2023-04-20T12:04:44.517Z,101241.59
2023-04-20T12:07:11.428Z,101237.89
2023-04-20T12:09:38.402Z,101235.61
2023-04-20T12:12:06.110Z,101234.14
2023-04-20T12:14:36.235Z,101234.27
2023-04-20T12:17:04.509Z,101237.41
2023-04-20T12:19:32.096Z,101233.26
2023-04-20T12:21:58.984Z,101228.05
2023-04-20T12:24:26.440Z,101222.48
2023-04-20T12:26:53.307Z,101224.38
2023-04-20T12:29:20.297Z,101218.39
2023-04-20T12:31:47.587Z,101216.56
2023-04-20T12:34:14.135Z,101214.35
2023-04-20T12:36:40.897Z,101217.27
2023-04-20T12:39:07.841Z,101213.36
2023-04-20T12:41:34.860Z,101204.49
2023-04-20T12:44:04.155Z,101198.68
2023-04-20T12:46:33.011Z,101192.15
2023-04-20T12:48:59.612Z,101196.09
2023-04-20T12:51:27.108Z,101203.89
2023-04-20T12:53:53.497Z,101207.34
2023-04-20T12:56:20.205Z,101213.46
2023-04-20T12:58:47.268Z,101219.95
2023-04-20T13:01:13.821Z,101217.69
2023-04-20T13:03:42.507Z,101215.98
2023-04-20T13:06:13.604Z,101215.63
2023-04-20T13:08:40.914Z,101213.34
2023-04-20T13:11:07.473Z,101210.64
2023-04-20T13:13:34.528Z,101213.94
2023-04-20T13:16:01.145Z,101205.96
2023-04-20T13:18:27.800Z,101211.92
2023-04-20T13:20:54.788Z,101212.27
2023-04-20T13:23:21.735Z,101214.84
2023-04-20T13:25:48.661Z,101212.39
2023-04-20T13:28:15.145Z,101210.50
2023-04-20T13:30:41.902Z,101207.95
2023-04-20T13:33:08.524Z,101206.88
2023-04-20T13:35:36.289Z,101207.10
2023-04-20T13:38:04.747Z,101204.73
2023-04-20T13:40:31.823Z,101210.41
2023-04-20T13:42:58.494Z,101210.13
2023-04-20T13:45:25.516Z,101209.35
2023-04-20T13:47:52.332Z,101207.26
2023-04-20T13:50:19.289Z,101206.86
2023-04-20T13:52:45.803Z,101204.17
2023-04-20T13:55:12.423Z,101204.02
2023-04-20T13:57:39.306Z,101205.56
2023-04-20T14:00:07.402Z,101199.09
2023-04-20T14:02:34.359Z,101194.53
2023-04-20T14:05:02.054Z,101193.74
2023-04-20T14:07:28.781Z,101192.73
2023-04-20T14:09:56.578Z,101195.48
2023-04-20T14:12:23.386Z,101194.73
2023-04-20T14:14:50.213Z,101195.33
2023-04-20T14:17:16.966Z,101193.02
2023-04-20T14:19:43.557Z,101192.13
2023-04-20T14:22:10.459Z,101190.77
2023-04-20T14:24:37.190Z,101187.81
2023-04-20T14:27:04.062Z,101185.43
2023-04-20T14:29:31.184Z,101182.39
2023-04-20T14:31:57.980Z,101184.50
2023-04-20T14:34:24.765Z,101184.79
2023-04-20T14:36:51.640Z,101181.21
2023-04-20T14:39:21.405Z,101175.71
2023-04-20T14:41:48.505Z,101172.68
2023-04-20T14:44:15.158Z,101176.08
2023-04-20T14:46:42.415Z,101180.80
2023-04-20T14:49:10.406Z,101180.40
2023-04-20T14:51:37.191Z,101186.42
2023-04-20T14:54:04.233Z,101193.09
2023-04-20T14:56:30.961Z,101199.30
2023-04-20T14:58:59.456Z,101201.96
2023-04-20T15:01:27.757Z,101200.81
2023-04-20T15:03:54.717Z,101203.11
2023-04-20T15:06:21.618Z,101204.29
2023-04-20T15:08:48.519Z,101206.52
2023-04-20T15:11:15.106Z,101212.69
2023-04-20T15:13:43.569Z,101209.52
2023-04-20T15:16:10.595Z,101212.91
2023-04-20T15:18:37.181Z,101206.86
2023-04-20T15:21:04.043Z,101209.98
2023-04-20T15:23:31.041Z,101205.66
2023-04-20T15:25:57.742Z,101205.70
2023-04-20T15:28:24.299Z,101205.13
2023-04-20T15:30:51.186Z,101204.05
2023-04-20T15:33:18.012Z,101204.88
2023-04-20T15:35:44.628Z,101201.41
2023-04-20T15:38:11.425Z,101208.50
2023-04-20T15:40:38.846Z,101211.38
2023-04-20T15:43:06.528Z,101214.32
2023-04-20T15:45:33.269Z,101209.25
2023-04-20T15:48:00.842Z,101209.65
2023-04-20T15:50:27.926Z,101216.42
2023-04-20T15:52:54.956Z,101214.82
2023-04-20T15:55:22.161Z,101219.30
2023-04-20T15:57:49.385Z,101211.73
2023-04-20T16:00:16.668Z,101209.30
2023-04-20T16:02:43.642Z,101200.23
2023-04-20T16:05:10.574Z,101199.04
2023-04-20T16:07:37.578Z,101192.44
2023-04-20T16:10:06.669Z,101190.96
2023-04-20T16:12:33.737Z,101186.43
2023-04-20T16:15:01.773Z,101183.27
2023-04-20T16:17:28.681Z,101180.81
2023-04-20T16:19:55.885Z,101171.29
2023-04-20T16:22:22.713Z,101167.30
2023-04-20T16:24:49.243Z,101166.29
2023-04-20T16:27:16.046Z,101169.28
2023-04-20T16:29:43.537Z,101161.96
2023-04-20T16:32:11.769Z,101159.37
2023-04-20T16:34:38.704Z,101152.54
2023-04-20T16:37:05.558Z,101145.11
2023-04-20T16:39:32.652Z,101150.95
2023-04-20T16:41:59.452Z,101154.85
2023-04-20T16:44:26.295Z,101155.71
2023-04-20T16:46:53.273Z,101157.46
2023-04-20T16:49:20.358Z,101155.56
2023-04-20T16:51:47.690Z,101146.60
2023-04-20T16:54:14.440Z,101147.73
2023-04-20T16:56:41.434Z,101147.27
2023-04-20T16:59:08.324Z,101152.05
2023-04-20T17:01:35.436Z,101147.66
2023-04-20T17:04:02.328Z,101144.91
2023-04-20T17:06:29.509Z,101149.73
2023-04-20T17:09:01.185Z,101159.29
2023-04-20T17:11:27.761Z,101155.84
2023-04-20T17:13:56.670Z,101153.61
2023-04-20T17:16:23.342Z,101149.34
2023-04-20T17:18:50.105Z,101148.23
2023-04-20T17:21:16.810Z,101151.52
2023-04-20T17:23:43.666Z,101146.46
2023-04-20T17:26:10.534Z,101148.52
2023-04-20T17:28:37.335Z,101145.81
2023-04-20T17:31:04.072Z,101148.27
2023-04-20T17:33:30.700Z,101153.45
2023-04-20T17:35:57.549Z,101154.84
2023-04-20T17:38:24.622Z,101159.08
2023-04-20T17:40:51.690Z,101156.99
2023-04-20T17:43:18.917Z,101162.66
2023-04-20T17:45:48.195Z,101162.39
2023-04-20T17:48:14.884Z,101164.45
2023-04-20T17:50:41.563Z,101171.11
2023-04-20T17:53:08.648Z,101172.40
2023-04-20T17:55:35.623Z,101175.05
2023-04-20T17:58:02.685Z,101175.02
2023-04-20T18:00:29.407Z,101178.85
2023-04-20T18:02:56.351Z,101182.74
2023-04-20T18:05:23.204Z,101186.89
2023-04-20T18:07:49.799Z,101186.36
2023-04-20T18:10:16.678Z,101189.67
2023-04-20T18:12:44.891Z,101192.22
2023-04-20T18:15:12.438Z,101193.92
2023-04-20T18:17:39.106Z,101195.47
2023-04-20T18:20:06.800Z,101194.57
2023-04-20T18:22:35.469Z,101203.21
2023-04-20T18:25:02.111Z,101205.97
2023-04-20T18:27:28.950Z,101206.03
2023-04-20T18:29:59.540Z,101206.06
2023-04-20T18:32:26.816Z,101208.91
2023-04-20T18:34:53.649Z,101210.21
2023-04-20T18:37:20.470Z,101207.66
2023-04-20T18:39:47.158Z,101204.17
2023-04-20T18:42:13.725Z,101209.27
2023-04-20T18:44:40.603Z,101210.27
2023-04-20T18:47:07.374Z,101211.48
2023-04-20T18:49:34.844Z,101205.48
2023-04-20T18:52:01.657Z,101207.05
2023-04-20T18:54:28.208Z,101204.36
2023-04-20T18:56:55.459Z,101207.98
2023-04-20T18:59:21.976Z,101201.91
2023-04-20T19:01:48.726Z,101197.34
2023-04-20T19:04:16.141Z,101197.98
2023-04-20T19:06:42.799Z,101199.70
2023-04-20T19:09:09.473Z,101193.27
2023-04-20T19:11:35.850Z,101188.58
2023-04-20T19:14:02.649Z,101189.81
2023-04-20T19:16:31.215Z,101196.80
2023-04-20T19:18:58.465Z,101201.25
2023-04-20T19:21:25.413Z,101195.18
2023-04-20T19:23:52.037Z,101193.48
2023-04-20T19:26:19.294Z,101189.65
2023-04-20T19:28:45.944Z,101187.61
2023-04-20T19:31:13.207Z,101186.49
2023-04-20T19:33:40.612Z,101180.50
2023-04-20T19:36:08.208Z,101183.33
2023-04-20T19:38:37.408Z,101181.31
2023-04-20T19:41:05.223Z,101181.09
2023-04-20T19:43:36.185Z,101182.08
2023-04-20T19:46:02.761Z,101178.70
2023-04-20T19:48:29.545Z,101173.09
2023-04-20T19:50:57.711Z,101170.14
2023-04-20T19:53:25.201Z,101168.60
2023-04-20T19:55:52.176Z,101168.15
2023-04-20T19:58:19.669Z,101167.08
2023-04-20T20:00:46.398Z,101163.50
2023-04-20T20:03:15.843Z,101160.61
2023-04-20T20:05:43.858Z,101157.06
2023-04-20T20:08:11.752Z,101153.17
2023-04-20T20:10:38.614Z,101148.52
2023-04-20T20:13:05.729Z,101150.45
2023-04-20T20:15:32.458Z,101149.94
2023-04-20T20:17:59.595Z,101148.59
2023-04-20T20:20:32.437Z,101145.04
2023-04-20T20:22:59.712Z,101140.67
2023-04-20T20:25:26.491Z,101140.39
2023-04-20T20:27:53.002Z,101132.07
2023-04-20T20:30:19.550Z,101135.62
2023-04-20T20:32:46.641Z,101131.00
2023-04-20T20:35:13.357Z,101128.86
2023-04-20T20:37:41.118Z,101127.55
2023-04-20T20:40:14.758Z,101127.29
2023-04-20T20:42:45.193Z,101123.17
2023-04-20T20:45:12.744Z,101125.55
2023-04-20T20:47:41.398Z,101123.95
2023-04-20T20:50:09.092Z,101119.12
2023-04-20T20:52:35.735Z,101121.36
2023-04-20T20:55:02.545Z,101118.45
2023-04-20T20:57:29.178Z,101120.88
2023-04-20T20:59:56.108Z,101122.17
2023-04-20T21:02:23.091Z,101120.59
2023-04-20T21:04:49.813Z,101119.05
2023-04-20T21:07:16.616Z,101115.25
2023-04-20T21:09:43.116Z,101116.08
2023-04-20T21:12:09.938Z,101114.09
2023-04-20T21:14:37.273Z,101109.88
2023-04-20T21:17:04.707Z,101109.64
2023-04-20T21:19:32.255Z,101108.33
2023-04-20T21:21:58.895Z,101110.19
2023-04-20T21:24:25.614Z,101105.34
2023-04-20T21:26:52.593Z,101102.70
2023-04-20T21:29:19.771Z,101106.03
2023-04-20T21:31:46.707Z,101102.98
2023-04-20T21:34:13.414Z,101102.90
2023-04-20T21:36:40.030Z,101106.63
2023-04-20T21:39:06.764Z,101106.02
2023-04-20T21:41:33.367Z,101110.06
2023-04-20T21:44:01.217Z,101112.16
2023-04-20T21:46:28.272Z,101116.04
2023-04-20T21:48:54.883Z,101115.67
2023-04-20T21:51:21.730Z,101112.02
2023-04-20T21:53:48.350Z,101108.81
2023-04-20T21:56:15.176Z,101105.73
2023-04-20T21:58:41.813Z,101099.80
2023-04-20T22:01:08.749Z,101096.60
2023-04-20T22:03:37.230Z,101098.79
2023-04-20T22:06:04.813Z,101097.23
2023-04-20T22:08:31.312Z,101096.84
2023-04-20T22:10:58.005Z,101094.75
2023-04-20T22:13:24.900Z,101090.44
2023-04-20T22:15:52.750Z,101091.35
2023-04-20T22:18:19.702Z,101089.71
2023-04-20T22:20:46.513Z,101088.11
2023-04-20T22:23:13.327Z,101087.91
2023-04-20T22:25:40.744Z,101087.91
2023-04-20T22:28:07.688Z,101085.56
2023-04-20T22:30:34.592Z,101089.21
2023-04-20T22:33:01.422Z,101085.27
2023-04-20T22:35:28.918Z,101085.05
2023-04-20T22:37:56.290Z,101083.34
2023-04-20T22:40:23.881Z,101089.77
2023-04-20T22:42:50.991Z,101089.14
2023-04-20T22:45:19.751Z,101085.09
2023-04-20T22:47:46.970Z,101084.08
2023-04-20T22:50:13.969Z,101083.98
2023-04-20T22:52:41.668Z,101082.39
2023-04-20T22:55:09.494Z,101081.39
2023-04-20T22:57:36.420Z,101078.83
2023-04-20T23:00:07.652Z,101077.98
2023-04-20T23:02:34.652Z,101080.39
2023-04-20T23:05:01.449Z,101080.91
2023-04-20T23:07:28.054Z,101079.83
2023-04-20T23:09:56.444Z,101074.93
2023-04-20T23:12:23.293Z,101078.83
2023-04-20T23:14:50.750Z,101078.62
2023-04-20T23:17:17.972Z,101078.33
2023-04-20T23:19:44.820Z,101076.67
2023-04-20T23:22:11.369Z,101077.77
2023-04-20T23:24:37.962Z,101077.38
2023-04-20T23:27:04.761Z,101075.96
2023-04-20T23:29:32.952Z,101074.88
2023-04-20T23:32:00.752Z,101073.70
2023-04-20T23:34:27.542Z,101070.32
2023-04-20T23:36:54.293Z,101071.69
2023-04-20T23:39:21.417Z,101069.45
2023-04-20T23:41:48.481Z,101066.76
2023-04-20T23:44:15.412Z,101064.45
2023-04-20T23:46:42.152Z,101070.59
2023-04-20T23:49:08.808Z,101066.48
2023-04-20T23:51:35.512Z,101063.08
2023-04-20T23:54:02.237Z,101058.27
2023-04-20T23:56:28.778Z,101053.50
2023-04-20T23:58:55.562Z,101057.15
